createdAt,value
2022-08-22T00:01:15.290Z,99289.59
2022-08-22T00:02:47.978Z,99273.00
2022-08-22T00:02:49.632Z,99288.56
2022-08-22T00:03:08.939Z,99298.31
2022-08-22T00:03:09.131Z,99304.59
2022-08-22T00:03:54.992Z,99284.75
2022-08-22T00:06:31.818Z,99288.66
2022-08-22T00:09:12.011Z,99289.75
2022-08-22T00:12:02.664Z,99286.53
2022-08-22T00:14:38.425Z,99279.34
2022-08-22T00:17:19.533Z,99285.81
2022-08-22T00:19:52.767Z,99281.44
2022-08-22T00:22:26.972Z,99281.75
2022-08-22T00:25:04.082Z,99277.06
2022-08-22T00:27:44.908Z,99271.81
2022-08-22T00:30:16.746Z,99273.91
2022-08-22T00:32:52.059Z,99273.59
2022-08-22T00:35:24.550Z,99271.09
2022-08-22T00:38:02.799Z,99274.06
2022-08-22T00:40:46.162Z,99271.00
2022-08-22T00:43:40.375Z,99264.34
2022-08-22T00:46:27.575Z,99260.19
2022-08-22T00:49:15.289Z,99260.34
2022-08-22T00:52:14.362Z,99260.28
2022-08-22T00:55:04.546Z,99257.81
2022-08-22T00:57:52.104Z,99259.44
2022-08-22T01:00:24.656Z,99259.94
2022-08-22T01:03:21.037Z,99256.31
2022-08-22T01:06:04.425Z,99251.56
2022-08-22T01:08:50.928Z,99252.38
2022-08-22T01:11:36.374Z,99262.06
2022-08-22T01:14:34.266Z,99255.16
2022-08-22T01:17:22.001Z,99261.50
2022-08-22T01:20:44.681Z,99261.44
2022-08-22T01:23:48.866Z,99253.16
2022-08-22T01:26:47.589Z,99244.56
2022-08-22T01:29:51.011Z,99247.94
2022-08-22T01:32:57.991Z,99236.66
2022-08-22T01:35:37.871Z,99243.97
2022-08-22T01:38:26.871Z,99244.97
2022-08-22T01:41:26.174Z,99247.56
2022-08-22T01:44:11.353Z,99246.50
2022-08-22T01:46:50.808Z,99249.00
2022-08-22T01:49:25.490Z,99239.41
2022-08-22T01:52:00.997Z,99247.94
2022-08-22T01:54:42.770Z,99248.16
2022-08-22T01:57:12.956Z,99241.09
2022-08-22T01:59:44.480Z,99246.56
2022-08-22T02:02:41.307Z,99252.22
2022-08-22T02:05:20.536Z,99248.97
2022-08-22T02:07:57.662Z,99244.69
2022-08-22T02:10:42.484Z,99244.09
2022-08-22T02:13:28.171Z,99237.72
2022-08-22T02:16:07.701Z,99241.66
2022-08-22T02:18:52.151Z,99238.47
2022-08-22T02:21:27.293Z,99231.78
2022-08-22T02:24:02.749Z,99234.78
2022-08-22T02:26:44.409Z,99244.00
2022-08-22T02:29:16.792Z,99235.09
2022-08-22T02:31:53.470Z,99232.78
2022-08-22T02:34:32.026Z,99232.78
2022-08-22T02:37:08.461Z,99233.09
2022-08-22T02:39:44.188Z,99233.09
2022-08-22T02:42:20.138Z,99231.72
2022-08-22T02:45:04.917Z,99231.91
2022-08-22T02:47:41.119Z,99233.84
2022-08-22T02:50:18.629Z,99221.97
2022-08-22T02:52:58.757Z,99233.38
2022-08-22T02:55:43.602Z,99228.31
2022-08-22T02:58:20.909Z,99217.41
2022-08-22T03:01:10.071Z,99216.47
2022-08-22T03:03:41.953Z,99214.41
2022-08-22T03:06:32.893Z,99211.91
2022-08-22T03:09:08.713Z,99218.06
2022-08-22T03:11:41.933Z,99215.66
2022-08-22T03:14:17.409Z,99200.91
2022-08-22T03:16:50.445Z,99212.81
2022-08-22T03:19:24.537Z,99211.75
2022-08-22T03:21:59.319Z,99207.00
2022-08-22T03:24:36.656Z,99207.78
2022-08-22T03:27:13.343Z,99211.91
2022-08-22T03:30:02.407Z,99218.38
2022-08-22T03:32:50.183Z,99216.00
2022-08-22T03:35:50.576Z,99216.19
2022-08-22T03:38:24.800Z,99209.34
2022-08-22T03:41:10.358Z,99213.06
2022-08-22T03:44:04.083Z,99206.72
2022-08-22T03:47:10.851Z,99210.91
2022-08-22T03:49:49.725Z,99198.53
2022-08-22T03:53:02.342Z,99193.31
2022-08-22T03:55:49.990Z,99199.66
2022-08-22T03:58:42.687Z,99190.66
2022-08-22T04:01:38.048Z,99192.34
2022-08-22T04:04:38.619Z,99198.75
2022-08-22T04:07:35.199Z,99193.53
2022-08-22T04:10:39.005Z,99197.19
2022-08-22T04:13:43.293Z,99192.03
2022-08-22T04:16:48.831Z,99197.63
2022-08-22T04:19:32.077Z,99191.28
2022-08-22T04:22:23.661Z,99193.06
2022-08-22T04:24:56.807Z,99195.31
2022-08-22T04:27:29.854Z,99190.31
2022-08-22T04:30:06.715Z,99189.50
2022-08-22T04:32:42.526Z,99194.00
2022-08-22T04:35:18.747Z,99199.22
2022-08-22T04:37:53.312Z,99189.69
2022-08-22T04:40:26.793Z,99193.88
2022-08-22T04:43:00.197Z,99190.53
2022-08-22T04:45:37.745Z,99197.44
2022-08-22T04:48:12.428Z,99202.97
2022-08-22T04:50:48.108Z,99201.53
2022-08-22T04:53:28.992Z,99203.25
2022-08-22T04:56:08.050Z,99204.38
2022-08-22T04:58:47.657Z,99203.72
2022-08-22T05:01:19.167Z,99200.41
2022-08-22T05:03:55.691Z,99207.19
2022-08-22T05:06:29.548Z,99210.47
2022-08-22T05:09:04.087Z,99208.63
2022-08-22T05:11:35.540Z,99218.13
2022-08-22T05:14:10.109Z,99218.84
2022-08-22T05:16:42.891Z,99225.75
2022-08-22T05:19:22.983Z,99230.25
2022-08-22T05:21:57.037Z,99226.81
2022-08-22T05:24:31.100Z,99217.94
2022-08-22T05:27:09.213Z,99218.69
2022-08-22T05:29:40.953Z,99224.84
2022-08-22T05:32:17.545Z,99224.16
2022-08-22T05:34:48.802Z,99221.25
2022-08-22T05:37:24.303Z,99220.09
2022-08-22T05:39:57.742Z,99227.56
2022-08-22T05:42:29.481Z,99218.50
2022-08-22T05:44:58.460Z,99222.75
2022-08-22T05:47:36.106Z,99217.66
2022-08-22T05:50:09.669Z,99225.81
2022-08-22T05:52:51.920Z,99217.31
2022-08-22T05:55:28.678Z,99228.13
2022-08-22T05:58:27.549Z,99225.66
2022-08-22T06:01:20.302Z,99226.56
2022-08-22T06:03:58.403Z,99222.00
2022-08-22T06:06:30.789Z,99229.69
2022-08-22T06:09:05.317Z,99229.53
2022-08-22T06:11:41.541Z,99231.66
2022-08-22T06:14:28.996Z,99228.47
2022-08-22T06:17:05.293Z,99220.56
2022-08-22T06:19:38.345Z,99219.97
2022-08-22T06:22:09.142Z,99213.88
2022-08-22T06:24:41.092Z,99217.75
2022-08-22T06:27:13.880Z,99228.94
2022-08-22T06:29:48.863Z,99221.50
2022-08-22T06:32:44.371Z,99226.25
2022-08-22T06:35:25.530Z,99222.91
2022-08-22T06:38:00.580Z,99216.78
2022-08-22T06:40:29.660Z,99218.50
2022-08-22T06:42:59.812Z,99224.00
2022-08-22T06:45:31.900Z,99216.69
2022-08-22T06:48:14.494Z,99213.78
2022-08-22T06:50:46.425Z,99215.72
2022-08-22T06:53:19.528Z,99215.59
2022-08-22T06:55:50.306Z,99218.19
2022-08-22T06:58:22.012Z,99221.41
2022-08-22T07:01:05.691Z,99215.81
2022-08-22T07:03:44.864Z,99219.16
2022-08-22T07:06:17.109Z,99214.31
2022-08-22T07:08:47.512Z,99220.31
2022-08-22T07:11:21.698Z,99233.28
2022-08-22T07:13:57.526Z,99226.00
2022-08-22T07:16:32.757Z,99221.63
2022-08-22T07:19:01.903Z,99222.28
2022-08-22T07:21:32.893Z,99225.47
2022-08-22T07:24:06.472Z,99233.22
2022-08-22T07:26:44.207Z,99236.81
2022-08-22T07:29:22.018Z,99228.06
2022-08-22T07:32:07.650Z,99233.97
2022-08-22T07:34:50.275Z,99233.72
2022-08-22T07:37:29.479Z,99236.50
2022-08-22T07:40:12.962Z,99228.06
2022-08-22T07:42:48.786Z,99232.44
2022-08-22T07:45:22.197Z,99231.78
2022-08-22T07:48:04.474Z,99239.72
2022-08-22T07:50:39.328Z,99236.19
2022-08-22T07:53:18.990Z,99239.19
2022-08-22T07:55:50.395Z,99244.00
2022-08-22T07:58:20.752Z,99240.06
2022-08-22T08:00:50.356Z,99241.38
2022-08-22T08:03:22.728Z,99253.34
2022-08-22T08:05:51.510Z,99251.00
2022-08-22T08:08:24.811Z,99249.91
2022-08-22T08:10:57.209Z,99237.69
2022-08-22T08:13:30.520Z,99243.69
2022-08-22T08:16:00.557Z,99238.59
2022-08-22T08:18:33.852Z,99231.59
2022-08-22T08:21:06.145Z,99235.22
2022-08-22T08:23:39.715Z,99235.28
2022-08-22T08:26:15.785Z,99227.25
2022-08-22T08:28:49.657Z,99228.03
2022-08-22T08:31:24.827Z,99223.91
2022-08-22T08:34:01.346Z,99224.66
2022-08-22T08:36:40.499Z,99223.88
2022-08-22T08:39:20.476Z,99224.19
2022-08-22T08:42:24.221Z,99220.25
2022-08-22T08:45:21.929Z,99207.84
2022-08-22T08:48:09.930Z,99216.06
2022-08-22T08:50:54.187Z,99209.09
2022-08-22T08:53:58.029Z,99212.13
2022-08-22T08:56:36.627Z,99213.91
2022-08-22T08:59:19.053Z,99219.00
2022-08-22T09:02:09.371Z,99212.22
2022-08-22T09:05:14.636Z,99206.81
2022-08-22T09:08:00.780Z,99211.09
2022-08-22T09:10:59.872Z,99212.63
2022-08-22T09:13:49.846Z,99204.53
2022-08-22T09:16:35.990Z,99200.97
2022-08-22T09:19:28.936Z,99200.19
2022-08-22T09:22:23.292Z,99192.66
2022-08-22T09:25:11.710Z,99206.47
2022-08-22T09:27:52.694Z,99190.00
2022-08-22T09:30:28.530Z,99200.25
2022-08-22T09:33:03.479Z,99194.53
2022-08-22T09:35:38.852Z,99205.81
2022-08-22T09:38:29.120Z,99197.25
2022-08-22T09:41:10.161Z,99195.16
2022-08-22T09:43:44.749Z,99191.75
2022-08-22T09:46:21.388Z,99191.56
2022-08-22T09:49:06.479Z,99186.84
2022-08-22T09:51:40.822Z,99196.72
2022-08-22T09:54:24.357Z,99191.06
2022-08-22T09:57:17.272Z,99194.03
2022-08-22T10:00:02.055Z,99185.88
2022-08-22T10:02:43.486Z,99190.31
2022-08-22T10:05:40.324Z,99184.00
2022-08-22T10:08:20.214Z,99187.41
2022-08-22T10:11:09.306Z,99182.78
2022-08-22T10:13:57.274Z,99180.94
2022-08-22T10:16:53.077Z,99172.72
2022-08-22T10:19:28.686Z,99178.91
2022-08-22T10:22:29.998Z,99173.38
2022-08-22T10:25:09.157Z,99161.78
2022-08-22T10:27:51.902Z,99159.03
2022-08-22T10:30:23.068Z,99155.41
2022-08-22T10:33:00.928Z,99154.13
2022-08-22T10:35:33.931Z,99164.53
2022-08-22T10:38:12.877Z,99157.41
2022-08-22T10:40:53.054Z,99150.09
2022-08-22T10:43:32.698Z,99153.03
2022-08-22T10:46:06.770Z,99151.97
2022-08-22T10:48:44.677Z,99154.50
2022-08-22T10:51:23.374Z,99163.53
2022-08-22T10:54:02.223Z,99158.59
2022-08-22T10:56:39.312Z,99157.72
2022-08-22T10:59:22.876Z,99152.97
2022-08-22T11:01:58.892Z,99148.38
2022-08-22T11:04:43.503Z,99148.16
2022-08-22T11:07:19.108Z,99144.34
2022-08-22T11:10:00.573Z,99140.50
2022-08-22T11:12:36.524Z,99144.91
2022-08-22T11:15:28.363Z,99140.69
2022-08-22T11:18:30.392Z,99142.88
2022-08-22T11:21:03.397Z,99143.91
2022-08-22T11:23:42.634Z,99137.97
2022-08-22T11:26:35.845Z,99134.47
2022-08-22T11:29:33.004Z,99132.56
2022-08-22T11:32:11.166Z,99137.53
2022-08-22T11:34:50.937Z,99127.25
2022-08-22T11:37:45.206Z,99126.25
2022-08-22T11:40:29.280Z,99127.44
2022-08-22T11:43:16.399Z,99126.94
2022-08-22T11:45:50.635Z,99125.44
2022-08-22T11:48:28.534Z,99118.78
2022-08-22T11:51:13.214Z,99115.94
2022-08-22T11:53:48.309Z,99124.34
2022-08-22T11:56:24.550Z,99121.47
2022-08-22T11:59:02.078Z,99122.09
2022-08-22T12:01:39.365Z,99118.44
2022-08-22T12:04:17.405Z,99125.06
2022-08-22T12:07:02.053Z,99123.13
2022-08-22T12:09:50.753Z,99117.84
2022-08-22T12:12:36.807Z,99113.59
2022-08-22T12:15:17.065Z,99108.13
2022-08-22T12:18:20.051Z,99100.22
2022-08-22T12:21:12.575Z,99101.84
2022-08-22T12:24:11.104Z,99096.91
2022-08-22T12:26:57.708Z,99095.69
2022-08-22T12:29:40.002Z,99094.34
2022-08-22T12:33:04.162Z,99088.84
2022-08-22T12:35:43.105Z,99087.69
2022-08-22T12:38:36.073Z,99085.16
2022-08-22T12:41:48.188Z,99077.72
2022-08-22T12:44:34.284Z,99072.84
2022-08-22T12:47:18.149Z,99076.25
2022-08-22T12:50:14.052Z,99069.91
2022-08-22T12:52:57.186Z,99068.91
2022-08-22T12:55:43.891Z,99064.34
2022-08-22T12:58:22.384Z,99067.66
2022-08-22T13:00:52.609Z,99058.66
2022-08-22T13:03:25.995Z,99061.78
2022-08-22T13:06:00.662Z,99056.13
2022-08-22T13:08:32.085Z,99063.78
2022-08-22T13:11:02.977Z,99066.22
2022-08-22T13:13:40.821Z,99061.41
2022-08-22T13:16:12.225Z,99057.19
2022-08-22T13:18:53.423Z,99057.03
2022-08-22T13:21:32.044Z,99057.25
2022-08-22T13:24:10.502Z,99054.91
2022-08-22T13:26:49.124Z,99050.84
2022-08-22T13:29:26.145Z,99046.88
2022-08-22T13:32:01.458Z,99046.50
2022-08-22T13:34:40.551Z,99048.47
2022-08-22T13:37:17.360Z,99043.06
2022-08-22T13:39:52.630Z,99034.13
2022-08-22T13:42:29.926Z,99031.50
2022-08-22T13:45:05.063Z,99024.38
2022-08-22T13:47:39.749Z,99033.38
2022-08-22T13:50:14.622Z,99028.50
2022-08-22T13:52:52.453Z,99036.50
2022-08-22T13:55:35.131Z,99032.81
2022-08-22T13:58:13.529Z,99039.72
2022-08-22T14:01:17.456Z,99032.53
2022-08-22T14:03:49.829Z,99028.44
2022-08-22T14:06:37.277Z,99020.13
2022-08-22T14:09:29.427Z,99030.34
2022-08-22T14:12:12.640Z,99019.53
2022-08-22T14:14:46.126Z,99012.69
2022-08-22T14:17:18.096Z,99023.84
2022-08-22T14:19:59.762Z,99016.88
2022-08-22T14:22:34.828Z,99017.44
2022-08-22T14:25:10.360Z,99005.59
2022-08-22T14:27:43.849Z,99014.63
2022-08-22T14:30:18.884Z,99008.84
2022-08-22T14:32:52.858Z,99004.25
2022-08-22T14:35:34.647Z,98999.91
2022-08-22T14:38:29.784Z,99005.19
2022-08-22T14:41:05.351Z,99001.47
2022-08-22T14:43:49.796Z,99003.75
2022-08-22T14:46:27.713Z,99000.47
2022-08-22T14:49:14.755Z,99000.56
2022-08-22T14:51:50.850Z,98994.16
2022-08-22T14:54:23.318Z,98995.41
2022-08-22T14:57:01.292Z,98996.00
2022-08-22T14:59:39.352Z,98990.44
2022-08-22T15:02:13.849Z,98983.97
2022-08-22T15:04:46.690Z,98986.88
2022-08-22T15:07:24.157Z,98996.69
2022-08-22T15:09:56.268Z,98987.50
2022-08-22T15:12:30.638Z,98987.66
2022-08-22T15:15:01.846Z,98990.16
2022-08-22T15:17:35.538Z,98987.41
2022-08-22T15:20:28.464Z,98983.69
2022-08-22T15:23:01.583Z,98979.28
2022-08-22T15:25:35.160Z,98986.91
2022-08-22T15:28:14.168Z,98984.19
2022-08-22T15:30:46.657Z,98987.78
2022-08-22T15:33:24.556Z,98989.81
2022-08-22T15:36:07.406Z,98984.06
2022-08-22T15:38:40.443Z,98986.19
2022-08-22T15:41:41.800Z,98987.56
2022-08-22T15:44:32.596Z,98988.91
2022-08-22T15:47:23.794Z,98988.09
2022-08-22T15:49:58.272Z,98987.06
2022-08-22T15:52:30.997Z,98983.97
2022-08-22T15:55:22.897Z,98981.44
2022-08-22T15:58:05.077Z,98978.22
2022-08-22T16:00:43.441Z,98978.06
2022-08-22T16:03:25.513Z,98983.34
2022-08-22T16:05:58.763Z,98976.03
2022-08-22T16:08:33.007Z,98983.34
2022-08-22T16:11:20.785Z,98978.06
2022-08-22T16:14:22.367Z,98979.19
2022-08-22T16:17:02.010Z,98983.16
2022-08-22T16:19:31.805Z,98978.00
2022-08-22T16:22:11.318Z,98979.00
2022-08-22T16:25:06.577Z,98975.94
2022-08-22T16:27:53.780Z,98966.81
2022-08-22T16:30:36.082Z,98967.97
2022-08-22T16:33:06.957Z,98965.38
2022-08-22T16:36:25.577Z,98972.69
2022-08-22T16:38:57.799Z,98970.44
2022-08-22T16:41:30.288Z,98974.56
2022-08-22T16:44:22.664Z,98966.72
2022-08-22T16:46:53.949Z,98966.25
2022-08-22T16:49:29.446Z,98966.16
2022-08-22T16:52:33.409Z,98959.84
2022-08-22T16:55:04.629Z,98964.56
2022-08-22T16:57:59.406Z,98955.72
2022-08-22T17:00:42.110Z,98950.50
2022-08-22T17:03:19.609Z,98947.03
2022-08-22T17:05:56.225Z,98955.38
2022-08-22T17:08:42.258Z,98960.47
2022-08-22T17:11:33.987Z,98958.56
2022-08-22T17:14:17.542Z,98953.94
2022-08-22T17:17:09.297Z,98951.84
2022-08-22T17:23:20.658Z,98960.63
2022-08-22T17:26:00.723Z,98961.06
2022-08-22T17:28:40.269Z,98956.72
2022-08-22T17:31:18.073Z,98964.13
2022-08-22T17:34:12.121Z,98969.25
2022-08-22T17:36:57.057Z,98965.41
2022-08-22T17:39:39.130Z,98970.97
2022-08-22T17:42:37.464Z,98969.84
2022-08-22T17:45:18.111Z,98978.56
2022-08-22T17:47:53.332Z,98972.00
2022-08-22T17:50:28.026Z,98975.00
2022-08-22T17:53:04.316Z,98973.19
2022-08-22T17:55:39.939Z,98972.97
2022-08-22T17:58:43.688Z,98980.91
2022-08-22T18:01:16.381Z,98978.06
2022-08-22T18:03:52.898Z,98976.88
2022-08-22T18:06:25.898Z,98970.75
2022-08-22T18:09:16.005Z,98974.38
2022-08-22T18:11:51.347Z,98970.25
2022-08-22T18:14:30.345Z,98983.94
2022-08-22T18:17:00.899Z,98983.03
2022-08-22T18:19:44.206Z,98986.00
2022-08-22T18:22:20.674Z,98984.38
2022-08-22T18:24:56.368Z,98986.31
2022-08-22T18:27:35.242Z,98990.03
2022-08-22T18:30:16.904Z,98991.31
2022-08-22T18:32:56.371Z,98990.53
2022-08-22T18:35:29.893Z,98991.72
2022-08-22T18:38:12.202Z,98999.69
2022-08-22T18:40:55.550Z,98995.34
2022-08-22T18:43:36.190Z,98999.47
2022-08-22T18:46:31.678Z,98992.84
2022-08-22T18:49:17.798Z,98999.47
2022-08-22T18:52:27.140Z,99001.06
2022-08-22T18:55:19.284Z,99008.88
2022-08-22T18:58:03.946Z,99004.53
2022-08-22T19:01:04.136Z,99018.16
2022-08-22T19:03:45.283Z,99020.06
2022-08-22T19:06:37.920Z,99020.16
2022-08-22T19:09:32.010Z,99025.56
2022-08-22T19:12:08.115Z,99032.31
2022-08-22T19:15:05.864Z,99038.94
2022-08-22T19:17:58.960Z,99030.66
2022-08-22T19:20:47.510Z,99039.69
2022-08-22T19:23:50.175Z,99041.44
2022-08-22T19:26:29.613Z,99044.88
2022-08-22T19:29:00.367Z,99048.75
2022-08-22T19:31:47.862Z,99050.50
2022-08-22T19:34:38.683Z,99054.78
2022-08-22T19:37:34.111Z,99052.84
2022-08-22T19:40:06.112Z,99058.81
2022-08-22T19:42:38.768Z,99060.75
2022-08-22T19:45:19.583Z,99069.09
2022-08-22T19:47:59.394Z,99066.16
2022-08-22T19:50:34.016Z,99067.56
2022-08-22T19:53:32.373Z,99070.66
2022-08-22T19:56:12.723Z,99065.94
2022-08-22T19:58:53.564Z,99065.41
2022-08-22T20:01:37.035Z,99066.97
2022-08-22T20:04:20.485Z,99065.84
2022-08-22T20:06:59.209Z,99067.53
2022-08-22T20:09:40.260Z,99071.28
2022-08-22T20:12:15.964Z,99070.03
2022-08-22T20:14:47.087Z,99064.91
2022-08-22T20:17:39.599Z,99072.03
2022-08-22T20:20:19.096Z,99067.84
2022-08-22T20:22:55.470Z,99070.94
2022-08-22T20:25:42.468Z,99075.41
2022-08-22T20:28:30.849Z,99071.88
2022-08-22T20:31:02.164Z,99067.91
2022-08-22T20:33:37.099Z,99065.81
2022-08-22T20:36:18.490Z,99068.59
2022-08-22T20:39:01.632Z,99063.53
2022-08-22T20:41:35.608Z,99055.91
2022-08-22T20:44:13.258Z,99060.41
2022-08-22T20:46:53.196Z,99065.63
2022-08-22T20:49:25.012Z,99063.94
2022-08-22T20:51:59.324Z,99061.66
2022-08-22T20:54:30.137Z,99064.00
2022-08-22T20:57:01.394Z,99063.06
2022-08-22T20:59:35.665Z,99055.91
2022-08-22T21:02:09.720Z,99065.44
2022-08-22T21:04:53.727Z,99060.97
2022-08-22T21:07:26.903Z,99065.81
2022-08-22T21:10:20.286Z,99064.47
2022-08-22T21:13:07.653Z,99057.75
2022-08-22T21:15:38.278Z,99057.38
2022-08-22T21:18:07.592Z,99058.13
2022-08-22T21:20:38.558Z,99063.94
2022-08-22T21:23:20.625Z,99061.25
2022-08-22T21:25:58.094Z,99069.72
2022-08-22T21:28:29.857Z,99070.47
2022-08-22T21:30:58.951Z,99068.88
2022-08-22T21:33:27.494Z,99065.13
2022-08-22T21:35:58.396Z,99068.75
2022-08-22T21:38:29.117Z,99065.13
2022-08-22T21:41:05.250Z,99072.03
2022-08-22T21:43:36.768Z,99060.59
2022-08-22T21:46:06.901Z,99070.28
2022-08-22T21:48:39.807Z,99068.38
2022-08-22T21:51:42.774Z,99064.19
2022-08-22T21:54:28.683Z,99057.50
2022-08-22T21:56:59.817Z,99067.44
2022-08-22T21:59:52.285Z,99067.00
2022-08-22T22:02:37.137Z,99061.94
2022-08-22T22:05:10.335Z,99073.25
2022-08-22T22:07:41.959Z,99065.22
2022-08-22T22:10:14.310Z,99060.72
2022-08-22T22:12:44.094Z,99064.66
2022-08-22T22:15:16.752Z,99067.44
2022-08-22T22:17:45.405Z,99070.41
2022-08-22T22:20:16.168Z,99062.69
2022-08-22T22:22:46.216Z,99065.63
2022-08-22T22:25:38.805Z,99064.41
2022-08-22T22:28:10.104Z,99061.47
2022-08-22T22:30:38.663Z,99070.81
2022-08-22T22:33:07.146Z,99073.31
2022-08-22T22:35:38.214Z,99075.00
2022-08-22T22:38:07.628Z,99075.25
2022-08-22T22:40:37.486Z,99085.72
2022-08-22T22:43:06.402Z,99081.50
2022-08-22T22:45:34.987Z,99070.75
2022-08-22T22:48:03.822Z,99078.75
2022-08-22T22:50:33.014Z,99075.91
2022-08-22T22:53:01.439Z,99071.41
2022-08-22T22:55:29.931Z,99077.09
2022-08-22T22:58:01.477Z,99072.81
2022-08-22T23:00:33.163Z,99067.63
2022-08-22T23:03:04.504Z,99064.91
2022-08-22T23:05:34.873Z,99067.56
2022-08-22T23:08:04.486Z,99063.78
2022-08-22T23:10:34.456Z,99070.28
2022-08-22T23:13:06.429Z,99070.44
2022-08-22T23:15:34.876Z,99069.00
2022-08-22T23:18:03.313Z,99067.56
2022-08-22T23:20:31.879Z,99072.66
2022-08-22T23:23:00.519Z,99070.06
2022-08-22T23:25:31.413Z,99068.63
2022-08-22T23:28:00.195Z,99071.72
2022-08-22T23:30:30.272Z,99076.78
2022-08-22T23:32:58.767Z,99067.16
2022-08-22T23:39:17.058Z,99058.19
2022-08-22T23:41:46.750Z,99054.19
2022-08-22T23:44:17.510Z,99056.50
2022-08-22T23:46:48.095Z,99071.88
2022-08-22T23:49:17.045Z,99066.72
2022-08-22T23:51:46.865Z,99073.16
2022-08-22T23:54:16.057Z,99071.59
2022-08-22T23:56:47.972Z,99074.34
2022-08-22T23:59:19.168Z,99078.81
